Time;durP1;ratioP1;P1;durP2;ratioP2;P2;SDS_P1;SDS_P2;PMS_P1;PMS_P2;Temp;Humidity;BMP_temperature;BMP_pressure;BME280_temperature;BME280_humidity;BME280_pressure;Samples;Min_cycle;Max_cycle;Signal;HPM_P1;HPM_P2
2021/10/30 00:00:55;;;;;;;55.20;31.88;;;;;;;5.05;100.00;100831.78;5113799;28;20088;-75
2021/10/30 00:03:24;;;;;;;56.08;31.90;;;;;;;5.03;100.00;100830.09;5113301;28;20454;-73
2021/10/30 00:05:55;;;;;;;53.50;31.65;;;;;;;4.99;100.00;100823.16;5113404;28;20055;-73
2021/10/30 00:08:24;;;;;;;56.03;32.30;;;;;;;4.94;100.00;100828.56;5113274;28;20397;-74
2021/10/30 00:10:52;;;;;;;56.45;33.17;;;;;;;4.87;100.00;100833.16;5112153;28;20047;-75
2021/10/30 00:13:20;;;;;;;57.42;32.25;;;;;;;5.01;100.00;100835.41;5113078;28;20043;-74
2021/10/30 00:15:49;;;;;;;55.78;30.20;;;;;;;5.20;100.00;100832.25;5113204;28;20044;-73
2021/10/30 00:18:17;;;;;;;56.65;31.60;;;;;;;5.26;100.00;100829.44;5113360;28;20468;-74
2021/10/30 00:20:45;;;;;;;54.42;31.48;;;;;;;5.26;100.00;100826.78;5112318;28;20055;-75
2021/10/30 00:23:15;;;;;;;58.60;33.38;;;;;;;5.20;100.00;100826.94;5113460;28;20044;-75
2021/10/30 00:25:43;;;;;;;52.63;30.95;;;;;;;5.25;100.00;100817.13;5113545;28;20048;-73
2021/10/30 00:28:12;;;;;;;59.35;33.13;;;;;;;5.20;100.00;100826.94;5113356;28;20046;-74
2021/10/30 00:30:41;;;;;;;56.88;31.85;;;;;;;5.27;100.00;100825.88;5113026;28;20040;-75
2021/10/30 00:33:09;;;;;;;53.90;32.17;;;;;;;5.02;100.00;100823.94;5113464;28;20039;-74
2021/10/30 00:35:37;;;;;;;58.22;32.30;;;;;;;4.85;100.00;100827.06;5113097;28;20365;-75
2021/10/30 00:38:05;;;;;;;55.35;32.38;;;;;;;4.76;100.00;100821.16;5113345;28;20048;-74
2021/10/30 00:40:35;;;;;;;54.22;32.83;;;;;;;4.71;100.00;100823.03;5112702;28;20035;-75
2021/10/30 00:43:03;;;;;;;53.88;33.30;;;;;;;4.68;100.00;100824.00;5112971;28;20485;-75
2021/10/30 00:45:32;;;;;;;54.55;31.23;;;;;;;4.60;100.00;100820.69;5112634;28;20052;-75
2021/10/30 00:48:00;;;;;;;53.97;31.48;;;;;;;4.50;100.00;100824.47;5113270;28;20036;-75
2021/10/30 00:50:28;;;;;;;54.60;30.38;;;;;;;4.47;100.00;100819.28;5112487;28;20134;-76
2021/10/30 00:52:57;;;;;;;58.63;32.30;;;;;;;4.55;100.00;100820.81;5113220;28;20046;-78
2021/10/30 00:55:27;;;;;;;54.63;31.40;;;;;;;4.49;100.00;100828.88;5112544;28;20071;-77
2021/10/30 00:57:59;;;;;;;57.13;30.77;;;;;;;4.58;100.00;100818.09;5112912;28;20051;-77
2021/10/30 01:00:28;;;;;;;56.23;32.27;;;;;;;4.48;100.00;100811.31;5113672;28;20459;-77
2021/10/30 01:02:56;;;;;;;51.85;31.85;;;;;;;4.49;100.00;100807.75;5116900;28;20279;-76
2021/10/30 01:05:25;;;;;;;57.75;32.03;;;;;;;4.26;100.00;100810.13;5116558;28;20039;-77
2021/10/30 01:07:53;;;;;;;60.90;33.65;;;;;;;4.18;100.00;100806.81;5116529;28;20127;-77
2021/10/30 01:10:22;;;;;;;63.78;33.05;;;;;;;4.08;100.00;100800.03;5116174;28;20050;-75
2021/10/30 01:12:51;;;;;;;55.58;32.20;;;;;;;4.02;100.00;100795.75;5116813;28;20045;-75
2021/10/30 01:15:21;;;;;;;54.90;30.73;;;;;;;4.00;100.00;100790.53;5116662;28;20396;-76
2021/10/30 01:17:49;;;;;;;54.10;31.23;;;;;;;3.91;100.00;100787.25;5116623;28;20050;-75
2021/10/30 01:20:24;;;;;;;58.47;31.98;;;;;;;3.85;100.00;100790.88;5116321;28;20467;-75
2021/10/30 01:22:56;;;;;;;57.67;32.90;;;;;;;3.85;100.00;100790.88;5116593;28;20044;-75
2021/10/30 01:25:24;;;;;;;59.90;33.55;;;;;;;3.82;100.00;100793.59;5116036;28;20138;-76
2021/10/30 01:27:54;;;;;;;58.22;32.58;;;;;;;3.85;100.00;100790.03;5116314;28;20404;-75
2021/10/30 01:30:23;;;;;;;55.70;32.58;;;;;;;3.91;100.00;100788.09;5116112;28;20047;-75
2021/10/30 01:32:57;;;;;;;54.75;32.33;;;;;;;3.84;100.00;100791.78;5116264;28;20419;-75
2021/10/30 01:35:32;;;;;;;55.22;32.20;;;;;;;3.89;100.00;100784.66;5116058;28;20405;-75
2021/10/30 01:38:01;;;;;;;56.30;32.28;;;;;;;3.94;100.00;100787.16;5116397;28;20126;-75
2021/10/30 01:40:30;;;;;;;55.75;31.15;;;;;;;3.91;100.00;100779.31;5115600;28;20093;-75
2021/10/30 01:43:01;;;;;;;50.58;31.67;;;;;;;4.09;100.00;100786.78;5116292;28;20035;-75
2021/10/30 01:45:32;;;;;;;54.90;31.80;;;;;;;4.21;100.00;100780.31;5115915;28;20105;-75
2021/10/30 01:48:00;;;;;;;55.00;32.35;;;;;;;4.05;100.00;100769.28;5115936;28;20035;-75
2021/10/30 01:50:31;;;;;;;57.70;31.77;;;;;;;3.90;100.00;100765.25;5115636;28;20040;-76
2021/10/30 01:53:00;;;;;;;52.25;30.63;;;;;;;4.10;100.00;100753.34;5116101;28;20048;-75
2021/10/30 01:55:31;;;;;;;51.05;30.70;;;;;;;3.99;100.00;100753.63;5115616;28;20050;-76
2021/10/30 01:58:02;;;;;;;56.95;31.27;;;;;;;3.87;100.00;100754.78;5115881;28;20397;-74
2021/10/30 02:00:30;;;;;;;59.17;33.97;;;;;;;4.19;100.00;100755.75;5115511;28;20036;-70
2021/10/30 02:03:04;;;;;;;58.97;34.95;;;;;;;4.41;100.00;100758.69;5115856;28;20043;-70
2021/10/30 02:05:33;;;;;;;69.10;36.95;;;;;;;4.95;100.00;100752.78;5115446;28;20423;-70
2021/10/30 02:08:02;;;;;;;67.32;39.28;;;;;;;5.20;100.00;100752.91;5115659;28;20118;-70
2021/10/30 02:10:31;;;;;;;72.10;40.88;;;;;;;5.48;100.00;100753.78;5115301;28;20040;-71
2021/10/30 02:12:59;;;;;;;77.72;46.00;;;;;;;5.74;100.00;100740.59;5114912;28;20465;-70
2021/10/30 02:15:28;;;;;;;79.18;46.97;;;;;;;5.90;100.00;100750.69;5115347;28;20040;-71
2021/10/30 02:17:56;;;;;;;77.82;46.45;;;;;;;6.18;98.94;100743.59;5115510;28;20043;-70
2021/10/30 02:20:24;;;;;;;71.90;42.40;;;;;;;6.37;98.07;100749.13;5115154;28;20040;-71
2021/10/30 02:22:54;;;;;;;64.30;40.00;;;;;;;6.28;98.20;100746.78;5115444;28;20052;-70
2021/10/30 02:25:23;;;;;;;60.75;39.05;;;;;;;6.52;97.20;100753.84;5115021;28;20089;-76
2021/10/30 02:27:52;;;;;;;65.63;39.28;;;;;;;6.51;97.23;100751.28;5114066;28;20492;-70
2021/10/30 02:30:21;;;;;;;63.65;39.58;;;;;;;6.65;96.42;100754.28;5115224;28;20039;-70
2021/10/30 02:32:50;;;;;;;61.72;38.17;;;;;;;6.81;95.92;100750.16;5115208;28;20100;-70
2021/10/30 02:35:19;;;;;;;66.65;41.42;;;;;;;6.80;95.86;100756.38;5115307;28;20483;-70
2021/10/30 02:37:48;;;;;;;72.57;46.30;;;;;;;6.83;95.50;100753.59;5114599;28;20040;-71
2021/10/30 02:40:17;;;;;;;73.03;44.63;;;;;;;6.89;95.50;100755.19;5115135;28;20054;-72
2021/10/30 02:42:46;;;;;;;71.00;43.30;;;;;;;6.84;95.56;100747.38;5114863;28;20071;-72
2021/10/30 02:45:14;;;;;;;63.70;41.60;;;;;;;6.85;95.81;100756.19;5114834;28;20127;-76
2021/10/30 02:47:42;;;;;;;64.35;39.92;;;;;;;6.86;95.87;100756.16;5114262;28;20108;-76
2021/10/30 02:50:11;;;;;;;61.30;36.55;;;;;;;6.84;96.23;100757.97;5114808;28;20055;-75
2021/10/30 02:52:40;;;;;;;52.53;34.15;;;;;;;6.83;96.30;100748.31;5114113;28;20110;-75
2021/10/30 02:55:09;;;;;;;54.10;34.20;;;;;;;6.77;96.65;100748.56;5114464;28;20580;-74
2021/10/30 02:57:46;;;;;;;56.78;34.03;;;;;;;6.82;96.66;100754.53;5114199;28;20078;-74
2021/10/30 03:00:15;;;;;;;57.92;34.97;;;;;;;6.91;96.28;100753.34;5113556;28;20044;-74
2021/10/30 03:02:44;;;;;;;60.20;37.08;;;;;;;6.92;96.22;100749.75;5114215;28;20105;-74
2021/10/30 03:05:13;;;;;;;67.60;39.22;;;;;;;6.99;96.21;100750.41;5114515;28;20430;-74
2021/10/30 03:07:41;;;;;;;62.90;38.45;;;;;;;7.06;96.44;100743.94;5113892;28;20047;-75
2021/10/30 03:10:14;;;;;;;63.58;39.33;;;;;;;7.08;96.17;100745.63;5114580;28;20092;-74
2021/10/30 03:12:45;;;;;;;66.72;41.42;;;;;;;7.01;96.70;100757.38;5113729;28;20047;-73
2021/10/30 03:15:13;;;;;;;69.18;41.05;;;;;;;6.91;97.11;100749.81;5114686;28;20031;-73
2021/10/30 03:17:42;;;;;;;76.15;45.50;;;;;;;7.07;96.96;100750.97;5114003;28;20495;-73
2021/10/30 03:20:11;;;;;;;65.57;41.75;;;;;;;7.16;96.55;100758.59;5114290;28;20040;-73
2021/10/30 03:22:40;;;;;;;63.53;37.42;;;;;;;7.33;95.99;100748.16;5113590;28;20491;-73
2021/10/30 03:25:08;;;;;;;55.03;34.70;;;;;;;7.17;96.61;100750.56;5113600;28;20043;-76
2021/10/30 03:27:38;;;;;;;62.53;37.60;;;;;;;7.31;96.12;100751.81;5113939;28;20116;-74
2021/10/30 03:30:09;;;;;;;59.17;34.95;;;;;;;7.34;96.40;100749.06;5113862;28;20036;-73
2021/10/30 03:32:37;;;;;;;67.35;36.92;;;;;;;7.38;96.16;100754.19;5113739;28;20054;-75
2021/10/30 03:35:06;;;;;;;60.63;34.20;;;;;;;7.26;96.72;100752.00;5113753;28;20035;-72
2021/10/30 03:37:35;;;;;;;53.97;32.35;;;;;;;7.30;97.04;100755.41;5113759;28;20050;-72
2021/10/30 03:40:06;;;;;;;49.63;28.50;;;;;;;7.25;97.36;100747.63;5113906;28;20036;-74
2021/10/30 03:42:35;;;;;;;47.65;26.65;;;;;;;7.17;98.11;100749.72;5113626;28;20050;-74
2021/10/30 03:45:06;;;;;;;43.90;25.67;;;;;;;7.26;98.14;100748.50;5113957;28;20074;-75
2021/10/30 03:47:35;;;;;;;40.25;22.90;;;;;;;7.41;97.38;100747.88;5113631;28;20039;-74
2021/10/30 03:50:04;;;;;;;40.00;21.98;;;;;;;7.46;97.29;100752.09;5113723;28;20142;-75
2021/10/30 03:52:32;;;;;;;40.95;21.60;;;;;;;7.50;97.28;100752.81;5113413;28;20035;-75
2021/10/30 03:55:01;;;;;;;36.40;20.67;;;;;;;7.40;97.41;100741.72;5113392;28;20039;-75
2021/10/30 03:57:29;;;;;;;34.35;19.92;;;;;;;7.45;97.82;100749.50;5113563;28;20369;-76
2021/10/30 03:59:58;;;;;;;35.17;19.35;;;;;;;7.53;97.22;100757.16;5112833;28;20109;-75
2021/10/30 04:02:26;;;;;;;34.40;19.40;;;;;;;7.47;97.48;100753.81;5113348;28;20039;-74
2021/10/30 04:04:56;;;;;;;30.63;18.27;;;;;;;7.59;97.15;100741.84;5112396;28;20493;-75
2021/10/30 04:07:24;;;;;;;33.10;19.10;;;;;;;7.61;97.02;100755.06;5113349;28;20112;-74
2021/10/30 04:09:52;;;;;;;32.83;19.00;;;;;;;7.60;97.13;100755.97;5113188;28;20043;-75
2021/10/30 04:12:21;;;;;;;32.37;19.27;;;;;;;7.63;97.00;100758.53;5113255;28;20061;-74
2021/10/30 04:14:49;;;;;;;34.00;18.23;;;;;;;7.67;97.01;100754.81;5113303;28;20036;-74
2021/10/30 04:17:17;;;;;;;33.90;19.67;;;;;;;7.72;96.82;100742.19;5113467;28;20532;-74
2021/10/30 04:19:45;;;;;;;31.67;18.98;;;;;;;7.71;96.70;100746.66;5111801;28;20086;-74
2021/10/30 04:22:15;;;;;;;32.33;18.23;;;;;;;7.67;97.23;100738.88;5113454;28;20039;-73
2021/10/30 04:24:43;;;;;;;31.02;18.50;;;;;;;7.79;96.66;100749.00;5113066;28;20074;-73
2021/10/30 04:27:11;;;;;;;32.40;18.70;;;;;;;7.73;97.03;100739.50;5113193;28;20468;-75
2021/10/30 04:29:40;;;;;;;32.03;19.23;;;;;;;7.70;97.23;100731.66;5113054;28;20118;-75
2021/10/30 04:32:10;;;;;;;33.42;19.15;;;;;;;7.78;96.95;100736.66;5113350;28;20043;-75
2021/10/30 04:34:44;;;;;;;37.72;19.30;;;;;;;7.80;97.07;100734.78;5113598;28;20051;-75
2021/10/30 04:37:16;;;;;;;30.80;18.92;;;;;;;7.71;97.42;100736.03;5117495;28;20054;-74
2021/10/30 04:39:49;;;;;;;33.27;19.80;;;;;;;7.59;98.28;100735.66;5117205;28;20084;-75
2021/10/30 04:42:18;;;;;;;31.90;19.27;;;;;;;7.68;97.71;100732.66;5117084;28;20088;-74
2021/10/30 04:44:47;;;;;;;31.17;18.67;;;;;;;7.66;98.11;100726.53;5116757;28;20127;-75
2021/10/30 04:47:17;;;;;;;28.45;17.77;;;;;;;7.61;98.63;100733.81;5117335;28;20032;-75
2021/10/30 04:49:47;;;;;;;31.02;18.48;;;;;;;7.70;98.25;100713.06;5116958;28;20459;-75
2021/10/30 04:52:16;;;;;;;35.03;19.75;;;;;;;7.56;98.76;100711.91;5117100;28;20048;-73
2021/10/30 04:54:45;;;;;;;32.92;19.35;;;;;;;7.58;99.12;100704.75;5116724;28;20131;-75
2021/10/30 04:57:14;;;;;;;33.53;19.65;;;;;;;7.64;98.86;100702.72;5116949;28;20077;-75
2021/10/30 04:59:42;;;;;;;30.63;17.33;;;;;;;7.80;98.28;100707.38;5117039;28;20075;-75
2021/10/30 05:02:10;;;;;;;33.05;19.77;;;;;;;7.71;98.35;100704.16;5116598;28;20043;-75
2021/10/30 05:04:38;;;;;;;32.30;18.90;;;;;;;7.65;98.98;100719.50;5116714;28;20066;-74
2021/10/30 05:07:06;;;;;;;34.63;20.85;;;;;;;7.70;99.04;100707.75;5116953;28;20452;-74
2021/10/30 05:09:35;;;;;;;34.25;19.98;;;;;;;7.58;99.39;100707.41;5116182;28;20047;-75
2021/10/30 05:12:07;;;;;;;32.08;19.10;;;;;;;7.60;99.60;100713.50;5116895;28;20127;-74
2021/10/30 05:14:36;;;;;;;36.08;20.83;;;;;;;7.40;100.00;100709.84;5116464;28;20047;-75
2021/10/30 05:17:05;;;;;;;32.15;19.80;;;;;;;7.32;100.00;100714.59;5116731;28;20043;-74
2021/10/30 05:19:33;;;;;;;36.38;20.60;;;;;;;7.50;100.00;100715.66;5116592;28;20543;-75
2021/10/30 05:22:01;;;;;;;32.40;20.13;;;;;;;7.52;100.00;100712.94;5116288;28;20044;-75
2021/10/30 05:24:30;;;;;;;33.03;20.27;;;;;;;7.50;100.00;100725.41;5116673;28;20075;-74
2021/10/30 05:27:00;;;;;;;36.58;21.35;;;;;;;7.57;100.00;100722.47;5116588;28;20419;-74
2021/10/30 05:29:30;;;;;;;33.55;20.65;;;;;;;7.52;100.00;100731.53;5116520;28;20488;-74
2021/10/30 05:31:58;;;;;;;34.55;21.45;;;;;;;7.51;100.00;100737.75;5115612;28;20088;-74
2021/10/30 05:34:26;;;;;;;37.50;20.85;;;;;;;7.60;100.00;100729.44;5116148;28;20053;-74
2021/10/30 05:36:55;;;;;;;33.47;20.33;;;;;;;7.45;100.00;100737.09;5115707;28;20039;-74
2021/10/30 05:39:23;;;;;;;37.20;21.60;;;;;;;7.37;100.00;100741.84;5116287;28;20090;-75
2021/10/30 05:41:52;;;;;;;38.67;21.08;;;;;;;7.29;100.00;100738.63;5115875;28;20040;-75
2021/10/30 05:44:20;;;;;;;35.75;21.38;;;;;;;7.40;100.00;100741.72;5115967;28;20406;-75
2021/10/30 05:46:50;;;;;;;38.10;21.30;;;;;;;7.49;100.00;100736.97;5114544;27;20511;-75
2021/10/30 05:49:19;;;;;;;35.53;21.17;;;;;;;7.54;100.00;100733.22;5116180;28;20162;-74
2021/10/30 05:51:48;;;;;;;34.95;21.35;;;;;;;7.48;100.00;100725.50;5115628;28;20438;-73
2021/10/30 05:54:16;;;;;;;35.03;21.42;;;;;;;7.49;100.00;100734.31;5115763;28;20043;-72
2021/10/30 05:56:44;;;;;;;33.83;20.88;;;;;;;7.63;100.00;100726.69;5115641;28;20469;-73
2021/10/30 05:59:12;;;;;;;35.22;21.27;;;;;;;7.66;100.00;100742.47;5115586;28;20093;-73
2021/10/30 06:01:40;;;;;;;34.97;21.02;;;;;;;7.59;100.00;100747.16;5115203;28;20123;-73
2021/10/30 06:04:10;;;;;;;36.30;20.75;;;;;;;7.64;100.00;100739.03;5115591;28;20221;-73
2021/10/30 06:06:39;;;;;;;34.92;20.02;;;;;;;7.71;100.00;100740.47;5115588;28;20450;-75
2021/10/30 06:09:07;;;;;;;35.50;21.08;;;;;;;7.82;99.71;100742.72;5115243;28;20040;-70
2021/10/30 06:11:37;;;;;;;34.90;20.60;;;;;;;7.78;99.97;100746.41;5115310;28;20066;-71
2021/10/30 06:14:06;;;;;;;33.05;20.48;;;;;;;7.74;99.93;100746.56;5115182;28;20051;-70
2021/10/30 06:16:34;;;;;;;37.53;20.33;;;;;;;7.86;99.56;100744.31;5115231;28;20481;-70
2021/10/30 06:19:03;;;;;;;40.28;21.27;;;;;;;7.89;99.31;100739.72;5114783;28;20043;-72
2021/10/30 06:21:32;;;;;;;34.63;21.20;;;;;;;7.97;99.60;100740.28;5115299;28;20133;-72
2021/10/30 06:24:01;;;;;;;35.35;21.48;;;;;;;7.95;99.56;100739.50;5114648;28;20046;-71
2021/10/30 06:26:29;;;;;;;34.40;21.63;;;;;;;7.96;99.80;100741.22;5114945;28;20036;-72
2021/10/30 06:28:58;;;;;;;37.90;22.08;;;;;;;8.05;99.11;100750.59;5114411;28;20097;-73
2021/10/30 06:31:26;;;;;;;36.17;21.73;;;;;;;8.12;98.98;100754.72;5114895;28;20358;-71
2021/10/30 06:33:55;;;;;;;38.67;22.30;;;;;;;8.22;98.47;100758.72;5114086;28;20100;-77
2021/10/30 06:36:23;;;;;;;37.25;21.67;;;;;;;8.22;98.41;100758.72;5114488;28;20039;-75
2021/10/30 06:38:53;;;;;;;39.15;20.92;;;;;;;8.23;98.55;100770.22;5114030;28;20535;-72
2021/10/30 06:41:41;;;;;;;36.53;20.92;;;;;;;8.26;98.36;100776.25;5114535;28;20047;-77
2021/10/30 06:44:09;;;;;;;39.17;22.10;;;;;;;8.41;97.95;100780.09;5113297;28;20097;-69
2021/10/30 06:46:38;;;;;;;40.30;22.02;;;;;;;8.51;97.63;100772.59;5117667;28;20090;-69
2021/10/30 06:49:09;;;;;;;36.08;21.33;;;;;;;8.51;97.35;100776.13;5114854;28;20121;-71
2021/10/30 06:51:39;;;;;;;34.47;21.08;;;;;;;8.53;97.50;100776.03;5114643;28;20043;-78
2021/10/30 06:54:09;;;;;;;37.42;21.13;;;;;;;8.52;97.45;100780.50;5114536;28;20069;-78
2021/10/30 06:56:40;;;;;;;40.33;22.15;;;;;;;8.67;96.72;100783.41;5114631;28;20130;-78
2021/10/30 06:59:11;;;;;;;32.53;21.05;;;;;;;8.65;96.73;100788.81;5114373;28;20048;-78
2021/10/30 07:01:40;;;;;;;34.25;20.77;;;;;;;8.60;97.10;100786.34;5114594;28;20143;-80
2021/10/30 07:04:09;;;;;;;35.53;21.65;;;;;;;8.62;97.32;100788.09;5114644;28;20392;-82
2021/10/30 07:06:37;;;;;;;34.10;21.15;;;;;;;8.67;96.83;100794.03;5114417;28;20126;-80
2021/10/30 07:09:06;;;;;;;36.00;21.25;;;;;;;8.71;96.78;100793.00;5114105;28;20039;-77
2021/10/30 07:11:35;;;;;;;34.97;21.30;;;;;;;8.80;96.35;100797.91;5114569;28;20145;-79
2021/10/30 07:14:04;;;;;;;32.10;20.85;;;;;;;8.91;95.90;100787.66;5113918;28;20407;-79
2021/10/30 07:16:32;;;;;;;36.00;22.27;;;;;;;8.99;95.57;100788.19;5114002;28;20039;-77
2021/10/30 07:19:01;;;;;;;38.33;22.13;;;;;;;9.04;95.32;100791.47;5114127;28;20488;-78
2021/10/30 07:21:29;;;;;;;33.47;21.00;;;;;;;8.93;95.91;100790.25;5114434;28;20043;-78
2021/10/30 07:24:00;;;;;;;37.92;21.60;;;;;;;8.94;96.21;100790.16;5113903;28;20043;-76
2021/10/30 07:26:28;;;;;;;34.22;20.40;;;;;;;9.08;95.74;100787.78;5113060;28;20051;-77
2021/10/30 07:28:58;;;;;;;35.92;21.05;;;;;;;9.15;94.98;100791.00;5113632;28;20043;-80
2021/10/30 07:31:26;;;;;;;38.70;21.65;;;;;;;9.12;95.54;100805.31;5114076;28;20046;-76
2021/10/30 07:33:54;;;;;;;34.85;20.85;;;;;;;9.32;94.80;100792.88;5113731;28;20067;-76
2021/10/30 07:36:23;;;;;;;35.35;20.48;;;;;;;9.29;95.01;100798.38;5113671;28;20151;-75
2021/10/30 07:38:52;;;;;;;33.47;20.20;;;;;;;9.42;94.96;100800.38;5113560;28;20100;-76
2021/10/30 07:41:21;;;;;;;34.72;20.67;;;;;;;9.68;93.71;100799.16;5114017;28;20047;-75
2021/10/30 07:43:53;;;;;;;37.10;21.50;;;;;;;9.72;93.93;100815.84;5111913;28;20043;-76
2021/10/30 07:46:24;;;;;;;31.02;19.33;;;;;;;9.86;93.06;100802.72;5112825;28;20066;-75
2021/10/30 07:48:52;;;;;;;33.35;19.88;;;;;;;9.93;92.91;100811.28;5113667;28;20036;-75
2021/10/30 07:51:21;;;;;;;34.90;19.70;;;;;;;9.92;92.91;100817.53;5113392;28;20489;-75
2021/10/30 07:53:50;;;;;;;32.47;19.40;;;;;;;9.97;92.38;100815.53;5113047;28;20036;-72
2021/10/30 07:56:20;;;;;;;35.92;20.00;;;;;;;9.95;92.47;100812.94;5113255;28;20048;-70
2021/10/30 07:58:49;;;;;;;34.55;20.27;;;;;;;9.96;92.71;100813.81;5112876;28;20051;-74
2021/10/30 08:01:17;;;;;;;34.05;20.35;;;;;;;9.99;92.41;100813.66;5113364;28;20039;-72
2021/10/30 08:03:47;;;;;;;32.65;19.38;;;;;;;10.13;91.82;100810.28;5113451;28;20392;-71
2021/10/30 08:06:16;;;;;;;34.08;20.98;;;;;;;10.14;91.73;100809.38;5113318;28;20047;-71
2021/10/30 08:08:45;;;;;;;37.38;19.52;;;;;;;10.06;92.61;100812.41;5113057;28;20048;-71
2021/10/30 08:11:13;;;;;;;33.35;19.45;;;;;;;10.04;92.84;100807.16;5112364;28;20039;-69
2021/10/30 08:13:42;;;;;;;31.92;19.95;;;;;;;10.17;92.36;100801.22;5112980;28;20491;-69
2021/10/30 08:16:10;;;;;;;35.00;19.65;;;;;;;10.31;91.84;100810.28;5112462;28;20043;-68
2021/10/30 08:18:38;;;;;;;33.78;20.73;;;;;;;10.33;92.12;100802.22;5112973;28;20054;-71
2021/10/30 08:21:07;;;;;;;30.65;19.80;;;;;;;10.42;91.31;100801.75;5113039;28;20088;-68
2021/10/30 08:23:36;;;;;;;35.13;20.35;;;;;;;10.52;90.82;100805.69;5113382;28;20168;-69
2021/10/30 08:26:05;;;;;;;33.22;18.92;;;;;;;10.54;90.78;100803.78;5111820;28;20511;-70
2021/10/30 08:28:35;;;;;;;32.45;20.60;;;;;;;10.66;90.32;100804.97;5111912;28;20051;-69
2021/10/30 08:31:03;;;;;;;34.00;20.13;;;;;;;10.74;89.84;100797.44;5113277;28;20396;-69
2021/10/30 08:33:32;;;;;;;29.92;18.80;;;;;;;10.71;89.99;100788.69;5113245;28;20051;-69
2021/10/30 08:36:00;;;;;;;32.88;19.27;;;;;;;10.76;89.46;100792.00;5112668;28;20065;-69
2021/10/30 08:38:32;;;;;;;29.50;19.05;;;;;;;10.73;89.85;100790.38;5113232;28;20043;-69
2021/10/30 08:41:01;;;;;;;35.03;19.25;;;;;;;10.83;89.85;100780.06;5113293;28;20044;-69
2021/10/30 08:43:30;;;;;;;30.08;18.02;;;;;;;10.93;89.51;100785.78;5113366;28;20043;-69
2021/10/30 08:46:00;;;;;;;30.25;18.65;;;;;;;11.01;89.47;100789.78;5113243;28;20429;-69
2021/10/30 08:48:31;;;;;;;30.92;19.23;;;;;;;11.07;88.87;100783.22;5113561;28;20467;-69
2021/10/30 08:51:00;;;;;;;31.00;18.00;;;;;;;11.16;88.31;100772.91;5113055;28;20127;-69
2021/10/30 08:53:31;;;;;;;35.53;18.33;;;;;;;11.22;87.63;100777.06;5112860;28;20576;-69
2021/10/30 08:56:03;;;;;;;30.13;18.85;;;;;;;11.28;87.58;100773.19;5113538;28;20036;-69
2021/10/30 08:58:32;;;;;;;29.90;18.27;;;;;;;11.27;87.91;100780.34;5112866;28;20100;-69
2021/10/30 09:01:04;;;;;;;29.13;18.15;;;;;;;11.41;87.08;100772.44;5112894;28;20039;-70
2021/10/30 09:03:33;;;;;;;29.40;18.27;;;;;;;11.44;87.26;100777.59;5113446;28;20035;-69
2021/10/30 09:06:02;;;;;;;29.55;17.98;;;;;;;11.37;87.53;100768.19;5112574;28;20040;-70
2021/10/30 09:08:33;;;;;;;30.75;18.35;;;;;;;11.51;86.99;100766.59;5113126;28;20097;-70
2021/10/30 09:11:05;;;;;;;28.08;17.73;;;;;;;11.64;86.30;100770.28;5112747;28;20089;-69
2021/10/30 09:13:34;;;;;;;27.88;17.75;;;;;;;11.81;85.42;100770.25;5113152;28;20130;-69
2021/10/30 09:16:03;;;;;;;31.33;18.25;;;;;;;11.74;85.66;100775.03;5112677;28;20044;-69
2021/10/30 09:18:33;;;;;;;32.63;18.30;;;;;;;11.92;84.94;100756.25;5113046;28;20039;-69
2021/10/30 09:21:13;;;;;;;32.72;18.13;;;;;;;11.94;84.90;100757.88;5112787;28;20473;-69
2021/10/30 09:23:44;;;;;;;30.17;17.30;;;;;;;11.96;84.57;100757.78;5116643;28;20126;-69
2021/10/30 09:26:19;;;;;;;28.20;16.88;;;;;;;12.04;84.34;100755.53;5116316;28;20093;-69
2021/10/30 09:28:52;;;;;;;27.98;16.52;;;;;;;12.08;84.85;100761.59;5116563;28;20048;-69
2021/10/30 09:31:22;;;;;;;32.25;17.02;;;;;;;12.20;83.83;100760.84;5116395;28;20040;-69
2021/10/30 09:33:53;;;;;;;25.48;15.20;;;;;;;12.20;83.43;100759.03;5116550;28;20091;-69
2021/10/30 09:36:23;;;;;;;23.83;15.25;;;;;;;12.36;82.63;100756.34;5116186;28;20046;-69
2021/10/30 09:38:56;;;;;;;25.50;15.30;;;;;;;12.41;82.43;100748.03;5116691;28;20048;-69
2021/10/30 09:41:27;;;;;;;25.88;14.70;;;;;;;12.45;82.08;100745.09;5116413;28;20052;-69
2021/10/30 09:44:00;;;;;;;22.33;14.57;;;;;;;12.58;81.69;100745.19;5115639;28;20422;-73
2021/10/30 09:46:29;;;;;;;25.35;12.57;;;;;;;12.68;80.89;100742.81;5116027;28;20065;-69
2021/10/30 09:49:00;;;;;;;18.75;12.32;;;;;;;12.73;81.02;100733.53;5115563;28;20550;-69
2021/10/30 09:51:33;;;;;;;17.98;11.38;;;;;;;12.86;79.96;100736.34;5116183;28;20055;-69
2021/10/30 09:54:05;;;;;;;21.02;12.05;;;;;;;13.07;78.52;100720.75;5115877;28;20043;-70
2021/10/30 09:56:41;;;;;;;20.80;12.23;;;;;;;13.13;77.92;100723.91;5115679;28;20040;-68
2021/10/30 09:59:10;;;;;;;19.63;11.23;;;;;;;13.22;77.38;100718.94;5115124;28;20050;-70
2021/10/30 10:01:41;;;;;;;17.92;10.38;;;;;;;13.37;78.04;100712.59;5115784;28;20089;-69
2021/10/30 10:04:12;;;;;;;19.90;10.32;;;;;;;13.44;76.18;100709.44;5115391;28;20100;-69
2021/10/30 10:06:42;;;;;;;18.25;10.88;;;;;;;13.59;75.45;100710.22;5117417;28;20048;-67
2021/10/30 10:09:13;;;;;;;19.50;9.98;;;;;;;13.62;74.48;100702.00;5116933;28;20146;-68
2021/10/30 10:11:43;;;;;;;16.63;9.90;;;;;;;13.60;74.16;100709.28;5115565;28;20040;-67
2021/10/30 10:14:13;;;;;;;20.13;10.38;;;;;;;13.63;74.08;100711.78;5114955;28;20044;-67
2021/10/30 10:16:44;;;;;;;19.92;10.45;;;;;;;13.64;74.40;100704.59;5113988;28;20476;-69
2021/10/30 10:19:12;;;;;;;25.60;10.05;;;;;;;13.65;74.43;100701.81;5114829;28;20043;-69
2021/10/30 10:21:41;;;;;;;16.85;9.45;;;;;;;13.69;73.55;100703.31;5115376;28;20044;-69
2021/10/30 10:24:14;;;;;;;17.38;9.77;;;;;;;13.70;73.75;100688.97;5112039;28;20054;-71
2021/10/30 10:26:50;;;;;;;16.23;9.95;;;;;;;13.87;72.72;100692.34;5114993;28;20047;-70
2021/10/30 10:29:30;;;;;;;16.83;9.70;;;;;;;13.87;72.38;100689.66;5114529;28;20050;-70
2021/10/30 10:32:00;;;;;;;15.60;9.48;;;;;;;13.87;72.93;100695.00;5114859;28;20043;-69
2021/10/30 10:34:31;;;;;;;14.38;8.77;;;;;;;13.94;72.37;100682.91;5094127;28;20079;-69
2021/10/30 10:37:21;;;;;;;15.05;9.25;;;;;;;13.96;72.17;100678.31;5094221;28;20504;-70
2021/10/30 10:39:53;;;;;;;17.77;8.63;;;;;;;14.10;71.05;100680.94;5094309;28;20062;-69
2021/10/30 10:42:41;;;;;;;18.35;8.70;;;;;;;14.04;71.39;100678.66;5094342;28;20046;-68
2021/10/30 10:45:11;;;;;;;16.77;8.73;;;;;;;14.07;70.82;100673.06;5094241;28;20060;-71
2021/10/30 10:47:53;;;;;;;17.30;9.00;;;;;;;14.05;71.46;100669.63;5094157;28;20044;-72
2021/10/30 10:50:26;;;;;;;14.63;8.75;;;;;;;14.11;70.93;100671.91;5094272;28;20040;-72
2021/10/30 10:53:32;;;;;;;24.17;9.32;;;;;;;14.12;71.05;100659.38;5094483;28;20552;-72
2021/10/30 10:56:21;;;;;;;12.98;8.52;;;;;;;14.09;71.03;100663.13;5092904;28;20120;-74
2021/10/30 10:59:02;;;;;;;18.67;8.40;;;;;;;14.12;70.99;100662.91;5113862;28;20047;-72
2021/10/30 11:01:34;;;;;;;16.48;8.40;;;;;;;14.19;70.57;100656.16;5099276;28;20085;-74
2021/10/30 11:04:14;;;;;;;14.80;8.30;;;;;;;14.20;70.64;100655.19;5113031;28;20052;-72
2021/10/30 11:06:45;;;;;;;14.50;8.70;;;;;;;14.21;70.50;100646.19;5114369;28;20040;-71
2021/10/30 11:09:16;;;;;;;13.30;8.35;;;;;;;14.29;70.45;100638.47;5114035;28;20040;-73
2021/10/30 11:11:46;;;;;;;17.33;8.68;;;;;;;14.18;71.28;100643.69;5114689;28;20047;-72
2021/10/30 11:14:24;;;;;;;16.63;10.48;;;;;;;14.23;71.46;100638.88;5114279;28;20074;-74
2021/10/30 11:16:54;;;;;;;14.55;9.75;;;;;;;14.17;71.70;100638.44;5114042;28;20055;-72
2021/10/30 11:19:28;;;;;;;14.57;9.43;;;;;;;14.30;71.23;100639.31;5113876;28;20036;-73
2021/10/30 11:22:16;;;;;;;18.08;10.43;;;;;;;14.25;70.62;100633.41;5114185;28;20537;-73
2021/10/30 11:24:52;;;;;;;16.55;9.38;;;;;;;14.39;70.26;100637.81;5116033;28;20043;-72
2021/10/30 11:27:22;;;;;;;13.88;9.02;;;;;;;14.45;70.29;100626.66;5113701;28;20048;-71